createdAt,value
2022-11-09T00:01:39.834Z,0.82
2022-11-09T00:06:43.590Z,0.88
2022-11-09T00:11:47.399Z,1.00
2022-11-09T00:16:52.463Z,1.23
2022-11-09T00:21:56.097Z,1.50
2022-11-09T00:26:59.764Z,1.02
2022-11-09T00:32:07.554Z,0.75
2022-11-09T00:37:11.388Z,1.80
2022-11-09T00:42:15.559Z,1.40
2022-11-09T00:47:20.618Z,1.10
2022-11-09T00:52:24.251Z,1.15
2022-11-09T00:57:28.021Z,0.98
2022-11-09T01:02:33.021Z,1.30
2022-11-09T01:07:38.206Z,0.63
2022-11-09T01:12:41.798Z,1.38
2022-11-09T01:17:47.790Z,1.23
2022-11-09T01:22:55.285Z,0.70
2022-11-09T01:28:00.678Z,1.08
2022-11-09T01:33:06.618Z,0.65
2022-11-09T01:38:11.113Z,1.17
2022-11-09T01:43:17.805Z,1.05
2022-11-09T01:48:30.207Z,1.17
2022-11-09T01:53:37.493Z,1.00
2022-11-09T01:58:47.068Z,0.90
2022-11-09T02:03:55.458Z,0.70
2022-11-09T02:09:15.870Z,0.90
2022-11-09T02:14:23.400Z,0.90
2022-11-09T02:19:28.405Z,0.90
2022-11-09T02:24:34.491Z,0.70
2022-11-09T02:29:45.094Z,0.82
2022-11-09T02:34:48.800Z,0.73
2022-11-09T02:39:54.767Z,0.70
2022-11-09T02:45:00.806Z,0.70
2022-11-09T02:50:05.751Z,1.33
2022-11-09T02:55:11.321Z,0.65
2022-11-09T03:00:17.257Z,0.68
2022-11-09T03:05:21.645Z,0.93
2022-11-09T03:10:27.106Z,1.02
2022-11-09T03:15:32.310Z,0.90
2022-11-09T03:20:36.706Z,1.00
2022-11-09T03:25:41.714Z,1.00
2022-11-09T03:30:46.253Z,0.55
2022-11-09T03:35:50.154Z,0.98
2022-11-09T03:40:56.963Z,0.73
2022-11-09T03:46:00.899Z,0.95
2022-11-09T03:51:04.495Z,0.77
2022-11-09T03:56:09.923Z,0.90
2022-11-09T04:01:13.622Z,1.02
2022-11-09T04:06:17.301Z,0.90
2022-11-09T04:11:22.284Z,1.40
2022-11-09T04:16:25.876Z,1.73
2022-11-09T04:21:29.491Z,1.23
2022-11-09T04:26:34.495Z,1.17
2022-11-09T04:31:38.154Z,1.38
2022-11-09T04:36:41.812Z,1.63
2022-11-09T04:41:46.789Z,2.03
2022-11-09T04:46:50.561Z,1.58
2022-11-09T04:51:54.191Z,1.02
2022-11-09T04:56:59.162Z,1.55
2022-11-09T05:02:02.933Z,1.13
2022-11-09T05:07:06.575Z,1.30
2022-11-09T05:12:15.872Z,1.27
2022-11-09T05:17:19.516Z,1.30
2022-11-09T05:22:40.606Z,1.20
2022-11-09T05:27:45.687Z,1.42
2022-11-09T05:32:49.469Z,1.48
2022-11-09T05:37:53.140Z,1.27
2022-11-09T05:42:58.123Z,1.20
2022-11-09T05:48:05.345Z,1.08
2022-11-09T05:53:09.391Z,1.50
2022-11-09T05:58:14.376Z,1.90
2022-11-09T06:03:18.239Z,1.02
2022-11-09T06:08:22.199Z,1.10
2022-11-09T06:13:27.280Z,1.10
2022-11-09T06:18:32.745Z,1.50
2022-11-09T06:23:36.340Z,1.33
2022-11-09T06:28:42.410Z,1.00
2022-11-09T06:33:46.087Z,1.15
2022-11-09T06:38:50.527Z,1.25
2022-11-09T06:43:55.523Z,1.20
2022-11-09T06:48:59.446Z,1.15
2022-11-09T06:54:03.556Z,1.73
2022-11-09T06:59:08.938Z,1.23
2022-11-09T07:04:14.955Z,1.35
2022-11-09T07:09:18.597Z,0.98
2022-11-09T07:14:23.672Z,1.17
2022-11-09T07:19:27.369Z,0.93
2022-11-09T07:24:31.091Z,0.85
2022-11-09T07:29:36.229Z,0.90
2022-11-09T07:34:40.186Z,1.17
2022-11-09T07:39:43.824Z,0.73
2022-11-09T07:44:48.920Z,0.80
2022-11-09T07:49:52.592Z,0.93
2022-11-09T07:54:56.307Z,1.23
2022-11-09T08:00:01.316Z,1.15
2022-11-09T08:05:15.289Z,1.05
2022-11-09T08:10:19.257Z,1.42
2022-11-09T08:15:25.012Z,1.35
2022-11-09T08:20:29.015Z,1.27
2022-11-09T08:25:33.145Z,1.05
2022-11-09T08:30:38.253Z,1.25
2022-11-09T08:35:41.871Z,1.05
2022-11-09T08:40:45.561Z,1.27
2022-11-09T08:45:50.617Z,1.35
2022-11-09T08:50:55.771Z,1.35
2022-11-09T08:55:59.826Z,0.75
2022-11-09T09:01:12.291Z,1.10
2022-11-09T09:06:19.179Z,1.13
2022-11-09T09:11:22.915Z,1.65
2022-11-09T09:16:28.096Z,1.10
2022-11-09T09:21:31.832Z,1.58
2022-11-09T09:26:35.512Z,2.03
2022-11-09T09:31:40.537Z,1.27
2022-11-09T09:36:48.014Z,1.00
2022-11-09T09:41:55.441Z,1.40
2022-11-09T09:47:10.785Z,1.23
2022-11-09T09:52:22.397Z,1.05
2022-11-09T09:57:31.105Z,0.90
2022-11-09T10:02:38.078Z,1.10
2022-11-09T10:07:49.556Z,0.82
2022-11-09T10:13:20.828Z,0.82
2022-11-09T10:18:38.218Z,1.02
2022-11-09T10:23:49.614Z,0.82
2022-11-09T10:34:30.215Z,1.00
2022-11-09T10:39:43.424Z,0.70
2022-11-09T10:45:14.208Z,1.23
2022-11-09T10:50:40.678Z,0.80
2022-11-09T10:56:20.205Z,1.10
2022-11-09T11:01:43.387Z,0.80
2022-11-09T11:07:20.504Z,0.88
2022-11-09T11:12:44.188Z,1.05
2022-11-09T11:18:20.091Z,0.90
2022-11-09T11:23:43.730Z,0.70
2022-11-09T11:29:14.154Z,0.82
2022-11-09T11:34:59.165Z,0.80
2022-11-09T11:40:30.081Z,1.15
2022-11-09T11:45:59.715Z,1.00
2022-11-09T11:51:33.339Z,0.70
2022-11-09T11:57:05.119Z,0.88
2022-11-09T12:03:01.943Z,0.73
2022-11-09T12:08:34.536Z,0.90
2022-11-09T12:14:09.838Z,1.10
2022-11-09T12:20:02.491Z,0.63
2022-11-09T12:25:28.669Z,0.82
2022-11-09T12:31:04.867Z,0.98
2022-11-09T12:36:32.198Z,0.63
2022-11-09T12:41:57.833Z,0.57
2022-11-09T12:47:27.765Z,0.60
2022-11-09T12:52:52.353Z,0.70
2022-11-09T12:58:26.083Z,0.60
2022-11-09T13:03:57.223Z,0.75
2022-11-09T13:09:25.608Z,0.77
2022-11-09T13:14:48.483Z,0.60
2022-11-09T13:21:00.271Z,0.63
2022-11-09T13:26:25.884Z,0.73
2022-11-09T13:32:27.901Z,0.88
2022-11-09T13:37:58.523Z,0.77
2022-11-09T13:43:24.134Z,0.63
2022-11-09T13:48:47.692Z,1.20
2022-11-09T13:54:33.329Z,0.82
2022-11-09T13:59:59.297Z,0.60
2022-11-09T14:05:26.416Z,0.75
2022-11-09T14:11:20.581Z,1.10
2022-11-09T14:16:51.561Z,0.70
2022-11-09T14:22:17.292Z,0.63
2022-11-09T14:27:48.041Z,0.77
2022-11-09T14:33:22.497Z,0.68
2022-11-09T14:38:49.100Z,0.98
2022-11-09T14:44:17.576Z,0.80
2022-11-09T14:49:40.381Z,0.82
2022-11-09T14:55:03.353Z,0.77
2022-11-09T15:00:33.029Z,0.73
2022-11-09T15:06:06.703Z,0.50
2022-11-09T15:11:34.265Z,0.52
2022-11-09T15:17:06.972Z,0.80
2022-11-09T15:22:54.467Z,0.73
2022-11-09T15:28:26.190Z,1.05
2022-11-09T15:33:52.307Z,0.65
2022-11-09T15:39:17.698Z,0.95
2022-11-09T15:44:39.728Z,1.27
2022-11-09T15:50:08.075Z,0.88
2022-11-09T15:55:30.494Z,0.80
2022-11-09T16:00:53.190Z,0.93
2022-11-09T16:06:19.554Z,1.10
2022-11-09T16:11:41.563Z,0.82
2022-11-09T16:17:03.509Z,1.10
2022-11-09T16:22:31.170Z,1.17
2022-11-09T16:27:54.550Z,1.15
2022-11-09T16:33:16.800Z,1.13
2022-11-09T16:38:44.583Z,0.90
2022-11-09T16:44:06.960Z,0.70
2022-11-09T16:49:29.283Z,1.23
2022-11-09T16:54:53.092Z,0.80
2022-11-09T17:00:19.815Z,0.75
2022-11-09T17:05:42.522Z,1.08
2022-11-09T17:11:09.912Z,0.93
2022-11-09T17:16:32.296Z,0.85
2022-11-09T17:21:54.575Z,0.70
2022-11-09T17:27:18.092Z,1.20
2022-11-09T17:32:41.879Z,1.10
2022-11-09T17:38:05.093Z,1.05
2022-11-09T17:43:30.830Z,0.93
2022-11-09T17:48:53.232Z,1.13
2022-11-09T17:54:15.778Z,0.93
2022-11-09T17:59:39.090Z,1.00
2022-11-09T18:05:01.250Z,1.13
2022-11-09T18:10:23.745Z,0.90
2022-11-09T18:15:47.339Z,0.98
2022-11-09T18:21:10.049Z,1.00
2022-11-09T18:26:32.915Z,1.65
2022-11-09T18:31:56.221Z,1.00
2022-11-09T18:37:18.536Z,1.10
2022-11-09T18:42:40.991Z,0.93
2022-11-09T18:48:05.480Z,0.98
2022-11-09T18:53:30.226Z,1.35
2022-11-09T18:58:54.219Z,1.15
2022-11-09T19:04:18.318Z,1.42
2022-11-09T19:09:42.257Z,1.50
2022-11-09T19:15:05.216Z,1.70
2022-11-09T19:20:29.292Z,1.15
2022-11-09T19:25:51.329Z,1.17
2022-11-09T19:31:14.551Z,1.10
2022-11-09T19:36:38.420Z,2.45
2022-11-09T19:42:00.422Z,1.45
2022-11-09T19:47:22.525Z,1.50
2022-11-09T19:52:45.894Z,1.33
2022-11-09T19:58:08.353Z,1.20
2022-11-09T20:03:30.752Z,1.35
2022-11-09T20:08:54.683Z,1.30
2022-11-09T20:14:18.425Z,1.60
2022-11-09T20:19:40.347Z,1.25
2022-11-09T20:25:04.719Z,1.63
2022-11-09T20:30:26.968Z,1.70
2022-11-09T20:35:53.145Z,1.30
2022-11-09T20:41:25.559Z,1.67
2022-11-09T20:46:48.122Z,1.50
2022-11-09T20:52:10.281Z,1.48
2022-11-09T20:57:33.800Z,1.60
2022-11-09T21:02:55.940Z,1.70
2022-11-09T21:08:18.132Z,1.70
2022-11-09T21:13:43.971Z,1.40
2022-11-09T21:19:06.242Z,1.92
2022-11-09T21:24:45.940Z,1.63
2022-11-09T21:30:10.779Z,1.40
2022-11-09T21:35:32.915Z,1.55
2022-11-09T21:40:55.142Z,1.63
2022-11-09T21:46:18.517Z,1.27
2022-11-09T21:51:41.715Z,1.85
2022-11-09T21:57:03.897Z,1.50
2022-11-09T22:02:27.287Z,1.63
2022-11-09T22:07:49.440Z,2.35
2022-11-09T22:13:32.836Z,2.20
2022-11-09T22:19:14.085Z,1.73
2022-11-09T22:24:36.328Z,1.85
2022-11-09T22:29:58.475Z,1.52
2022-11-09T22:35:22.213Z,1.35
2022-11-09T22:40:44.209Z,1.33
2022-11-09T22:46:07.226Z,1.60
2022-11-09T22:51:30.809Z,1.35
2022-11-09T22:56:53.241Z,1.52
2022-11-09T23:02:15.157Z,1.35
2022-11-09T23:07:39.194Z,1.30
2022-11-09T23:13:03.947Z,1.58
2022-11-09T23:18:44.581Z,1.55
2022-11-09T23:24:30.682Z,1.40
2022-11-09T23:29:52.747Z,1.73
2022-11-09T23:35:14.649Z,1.33
2022-11-09T23:40:38.288Z,1.45
2022-11-09T23:46:03.088Z,1.58
2022-11-09T23:51:25.445Z,1.42
2022-11-09T23:56:48.888Z,1.52
